Time;durP1;ratioP1;P1;durP2;ratioP2;P2;SDS_P1;SDS_P2;PMS_P1;PMS_P2;Temp;Humidity;BMP_temperature;BMP_pressure;BME280_temperature;BME280_humidity;BME280_pressure;Samples;Min_cycle;Max_cycle;Signal;HPM_P1;HPM_P2
2022/04/19 00:00:20;;;;;;;1.73;1.00;;;;;;;8.47;71.52;98686.28;4955605;29;20652;-91
2022/04/19 00:02:46;;;;;;;2.37;0.80;;;;;;;8.46;71.49;98697.69;4938736;29;20212;-90
2022/04/19 00:05:12;;;;;;;1.67;0.83;;;;;;;8.48;71.52;98685.38;4955537;29;20178;-90
2022/04/19 00:07:37;;;;;;;1.10;0.73;;;;;;;8.40;71.61;98691.00;4955973;29;20215;-90
2022/04/19 00:10:07;;;;;;;1.90;1.00;;;;;;;8.37;72.27;98685.06;4955378;29;20685;-90
2022/04/19 00:12:32;;;;;;;1.87;1.00;;;;;;;8.39;72.03;98689.28;4955584;29;20642;-90
2022/04/19 00:14:58;;;;;;;1.27;0.87;;;;;;;8.43;71.97;98685.63;4938522;29;20268;-90
2022/04/19 00:17:24;;;;;;;1.50;0.83;;;;;;;8.46;72.24;98682.81;4938478;29;20183;-90
2022/04/19 00:19:49;;;;;;;1.73;0.97;;;;;;;8.47;71.51;98681.06;4955614;29;20261;-90
2022/04/19 00:22:15;;;;;;;3.33;1.03;;;;;;;8.41;71.81;98684.00;4955278;29;20224;-90
2022/04/19 00:24:40;;;;;;;1.50;0.73;;;;;;;8.41;71.47;98676.19;4955431;29;20203;-90
2022/04/19 00:27:06;;;;;;;1.60;0.93;;;;;;;8.40;71.76;98674.47;4955592;29;20181;-90
2022/04/19 00:29:31;;;;;;;4.80;1.20;;;;;;;8.40;71.68;98674.47;4955006;29;20594;-90
2022/04/19 00:31:57;;;;;;;0.87;0.70;;;;;;;8.25;71.71;98683.06;4955181;29;20181;-90
2022/04/19 00:34:22;;;;;;;1.73;0.80;;;;;;;8.20;72.32;98680.66;4938230;29;20594;-90
2022/04/19 00:36:48;;;;;;;1.03;0.67;;;;;;;8.16;72.33;98680.91;4938440;29;20530;-90
2022/04/19 00:39:13;;;;;;;2.10;1.07;;;;;;;8.14;72.70;98677.53;4938216;29;20220;-91
2022/04/19 00:41:39;;;;;;;1.57;0.90;;;;;;;8.17;72.70;98680.84;4938657;29;20213;-90
2022/04/19 00:44:04;;;;;;;0.87;0.63;;;;;;;8.20;72.99;98682.44;4938010;29;20197;-90
2022/04/19 00:46:30;;;;;;;1.73;0.60;;;;;;;8.14;72.98;98672.31;4938349;29;20197;-90
2022/04/19 00:48:57;;;;;;;2.37;1.10;;;;;;;8.25;73.17;98675.22;4938621;29;20547;-90
2022/04/19 00:51:24;;;;;;;1.87;1.00;;;;;;;8.18;73.24;98674.69;4937007;29;20201;-90
2022/04/19 00:53:50;;;;;;;2.40;1.10;;;;;;;8.16;73.46;98683.50;4938280;29;20185;-90
2022/04/19 00:56:16;;;;;;;2.03;1.17;;;;;;;8.21;73.79;98679.75;4938327;29;20185;-91
2022/04/19 00:58:42;;;;;;;1.43;1.10;;;;;;;8.29;73.37;98676.78;4938537;29;20629;-90
2022/04/19 01:01:07;;;;;;;1.50;0.77;;;;;;;8.29;73.15;98676.78;4938226;29;20180;-90
2022/04/19 01:03:32;;;;;;;1.30;0.70;;;;;;;8.28;73.07;98680.34;4955093;29;20184;-90
2022/04/19 01:05:59;;;;;;;1.17;1.00;;;;;;;8.17;72.60;98677.38;4954823;29;20204;-90
2022/04/19 01:08:26;;;;;;;1.43;1.00;;;;;;;8.13;73.46;98678.44;4954737;29;20173;-90
2022/04/19 01:13:17;;;;;;;1.97;0.70;;;;;;;8.13;73.49;98681.03;4954700;29;20296;-90
2022/04/19 01:13:37;;;;;;;1.00;0.90;;;;;;;7.99;73.46;98672.13;4954263;29;20175;-90
2022/04/19 01:16:03;;;;;;;1.03;0.70;;;;;;;7.91;74.26;98676.88;4937892;29;20205;-90
2022/04/19 01:18:29;;;;;;;1.10;0.63;;;;;;;7.91;73.84;98665.63;4954672;29;20607;-90
2022/04/19 01:20:55;;;;;;;2.20;1.33;;;;;;;7.81;74.32;98670.44;4938065;29;20181;-89
2022/04/19 01:23:22;;;;;;;1.53;0.90;;;;;;;7.78;74.51;98670.56;4954921;29;20179;-89
2022/04/19 01:25:48;;;;;;;1.87;0.90;;;;;;;7.76;74.07;98667.19;4954675;29;20188;-90
2022/04/19 01:28:14;;;;;;;0.67;0.67;;;;;;;7.67;74.28;98672.88;4954630;29;20181;-90
2022/04/19 01:30:43;;;;;;;1.27;0.67;;;;;;;7.78;74.66;98670.56;4954757;29;20205;-89
2022/04/19 01:33:08;;;;;;;1.07;0.70;;;;;;;7.82;74.18;98664.31;4954611;29;20174;-90
2022/04/19 01:35:34;;;;;;;1.87;0.80;;;;;;;7.76;74.17;98669.81;4954817;29;20196;-89
2022/04/19 01:37:59;;;;;;;3.07;0.90;;;;;;;7.77;74.00;98663.69;4937672;29;20192;-89
2022/04/19 01:40:25;;;;;;;0.80;0.77;;;;;;;7.73;73.81;98662.13;4955043;29;20184;-90
2022/04/19 01:42:53;;;;;;;1.03;0.70;;;;;;;7.72;73.64;98663.06;4954645;28;20189;-90
2022/04/19 01:45:23;;;;;;;0.67;0.50;;;;;;;7.68;73.82;98663.31;4937808;29;20181;-89
2022/04/19 01:47:48;;;;;;;1.97;0.70;;;;;;;7.62;73.69;98658.38;4954482;29;20181;-89
2022/04/19 01:50:16;;;;;;;2.13;1.33;;;;;;;7.71;73.26;98657.91;4938239;29;20201;-89
2022/04/19 01:52:43;;;;;;;1.13;0.67;;;;;;;7.74;73.56;98657.75;4937484;29;20181;-89
2022/04/19 01:55:13;;;;;;;1.50;0.80;;;;;;;7.80;74.10;98660.09;4937471;29;20632;-90
2022/04/19 01:57:41;;;;;;;2.43;1.40;;;;;;;7.69;73.61;98665.81;4938275;29;20166;-89
2022/04/19 02:00:07;;;;;;;1.73;0.83;;;;;;;7.67;73.90;98661.59;4954301;29;20283;-89
2022/04/19 02:02:32;;;;;;;1.50;0.87;;;;;;;7.79;73.68;98663.59;4939034;29;20286;-89
2022/04/19 02:04:58;;;;;;;0.90;0.63;;;;;;;7.84;73.74;98654.63;4958274;29;20260;-89
2022/04/19 02:07:23;;;;;;;1.97;0.80;;;;;;;7.90;74.12;98654.34;4941034;29;20550;-89
2022/04/19 02:09:49;;;;;;;2.33;1.30;;;;;;;7.96;73.25;98654.03;4941177;29;20197;-89
2022/04/19 02:12:14;;;;;;;5.90;3.33;;;;;;;7.95;73.60;98654.97;4940697;29;20185;-89
2022/04/19 02:14:41;;;;;;;1.07;0.77;;;;;;;7.95;73.38;98654.09;4941483;29;20267;-89
2022/04/19 02:17:11;;;;;;;1.83;1.17;;;;;;;7.90;73.85;98653.50;4940610;29;20188;-89
2022/04/19 02:19:36;;;;;;;1.20;0.73;;;;;;;7.93;73.30;98659.41;4941327;29;20684;-90
2022/04/19 02:22:09;;;;;;;1.57;0.63;;;;;;;7.92;73.23;98651.63;4940840;29;20281;-89
2022/04/19 02:24:35;;;;;;;0.90;0.70;;;;;;;7.88;73.13;98657.94;4957644;29;20161;-89
2022/04/19 02:27:01;;;;;;;1.83;0.67;;;;;;;7.78;73.57;98657.53;4957297;29;20196;-91
2022/04/19 02:29:26;;;;;;;1.80;0.87;;;;;;;7.69;73.75;98662.38;4957206;29;20192;-90
2022/04/19 02:31:52;;;;;;;1.43;0.80;;;;;;;7.70;74.62;98662.31;4957303;29;20181;-89
2022/04/19 02:34:18;;;;;;;0.73;0.50;;;;;;;7.73;74.26;98664.75;4957494;29;20177;-90
2022/04/19 02:36:44;;;;;;;1.67;0.80;;;;;;;7.66;73.68;98668.56;4957118;29;20546;-89
2022/04/19 02:39:10;;;;;;;1.33;0.87;;;;;;;7.74;74.48;98660.38;4957083;29;20264;-88
2022/04/19 02:41:36;;;;;;;1.47;0.60;;;;;;;7.82;74.00;98672.13;4957384;29;20184;-88
2022/04/19 02:44:07;;;;;;;2.40;1.07;;;;;;;7.75;73.80;98652.50;4956918;28;20197;-88
2022/04/19 02:46:35;;;;;;;2.10;1.17;;;;;;;7.68;74.11;98658.09;4956983;29;20545;-89
2022/04/19 02:49:05;;;;;;;2.23;0.87;;;;;;;7.67;73.35;98657.22;4940061;29;20254;-89
2022/04/19 02:51:33;;;;;;;0.80;0.40;;;;;;;7.61;74.20;98660.13;4939927;29;20201;-89
2022/04/19 02:53:59;;;;;;;1.60;0.80;;;;;;;7.59;73.75;98651.53;4957150;29;20181;-90
2022/04/19 02:56:24;;;;;;;1.37;0.80;;;;;;;7.54;74.01;98660.50;4956785;29;20299;-90
2022/04/19 02:58:50;;;;;;;0.97;0.60;;;;;;;7.45;74.02;98661.78;4956783;29;20212;-90
2022/04/19 03:01:15;;;;;;;1.33;0.70;;;;;;;7.46;73.79;98658.25;4956764;29;20210;-89
2022/04/19 03:03:41;;;;;;;2.10;0.77;;;;;;;7.41;74.11;98652.44;4956919;29;20561;-89
2022/04/19 03:06:07;;;;;;;0.67;0.40;;;;;;;7.48;74.39;98661.63;4939644;29;20563;-88
2022/04/19 03:08:34;;;;;;;1.43;0.90;;;;;;;7.38;74.19;98655.16;4956600;29;20634;-89
2022/04/19 03:11:00;;;;;;;1.27;0.70;;;;;;;7.36;74.27;98667.44;4939769;29;20223;-89
2022/04/19 03:13:27;;;;;;;0.73;0.60;;;;;;;7.37;74.83;98667.34;4938919;29;20545;-89
2022/04/19 03:15:53;;;;;;;0.90;0.40;;;;;;;7.43;74.44;98668.84;4940009;29;20624;-89
2022/04/19 03:18:18;;;;;;;2.43;1.20;;;;;;;7.43;74.93;98674.91;4939473;29;20181;-89
2022/04/19 03:20:46;;;;;;;0.73;0.50;;;;;;;7.54;74.38;98676.16;4939745;29;20185;-89
2022/04/19 03:28:40;;;;;;;2.73;0.90;;;;;;;7.46;74.22;98692.16;4956841;29;20568;-89
2022/04/19 03:31:05;;;;;;;1.70;0.83;;;;;;;7.45;74.20;98687.84;4956119;29;20197;-89
2022/04/19 03:33:32;;;;;;;1.87;1.00;;;;;;;7.37;74.26;98685.59;4956087;29;20177;-89
2022/04/19 03:35:58;;;;;;;1.40;0.90;;;;;;;7.33;74.51;98684.06;4956352;29;20169;-89
2022/04/19 03:38:23;;;;;;;0.97;0.73;;;;;;;7.34;75.25;98687.50;4956045;29;20521;-90
2022/04/19 03:40:49;;;;;;;0.67;0.60;;;;;;;7.23;75.40;98687.19;4939034;29;20559;-90
2022/04/19 03:43:17;;;;;;;2.07;0.90;;;;;;;7.18;75.41;98699.56;4955880;28;20661;-90
2022/04/19 03:45:43;;;;;;;1.70;1.13;;;;;;;7.15;75.88;98691.88;4955887;29;20177;-89
2022/04/19 03:48:11;;;;;;;2.30;1.47;;;;;;;7.14;75.96;98692.78;4938986;29;20192;-91
2022/04/19 03:50:36;;;;;;;4.73;1.03;;;;;;;7.16;76.14;98690.97;4956271;29;20244;-89
2022/04/19 03:53:02;;;;;;;1.60;0.80;;;;;;;7.06;76.12;98700.13;4956016;29;20224;-91
2022/04/19 03:55:27;;;;;;;1.50;0.87;;;;;;;6.96;77.42;98698.84;4955983;29;20185;-89
2022/04/19 03:57:54;;;;;;;1.83;0.80;;;;;;;7.01;77.09;98702.94;4955722;29;20626;-89
2022/04/19 04:00:21;;;;;;;2.57;1.07;;;;;;;7.03;76.89;98698.50;4955597;29;20256;-89
2022/04/19 04:02:47;;;;;;;1.57;1.23;;;;;;;7.04;77.42;98694.13;4955622;29;20185;-89
2022/04/19 04:05:12;;;;;;;1.40;0.90;;;;;;;6.93;77.74;98698.97;4955547;29;20184;-90
2022/04/19 04:07:38;;;;;;;2.53;1.00;;;;;;;7.00;77.66;98695.16;4955680;29;20535;-88
2022/04/19 04:10:04;;;;;;;2.03;1.30;;;;;;;7.01;77.19;98702.09;4955389;29;20205;-91
2022/04/19 04:12:30;;;;;;;1.60;1.03;;;;;;;7.07;77.13;98694.00;4955464;29;20184;-89
2022/04/19 04:14:55;;;;;;;1.53;0.77;;;;;;;7.10;77.47;98699.06;4955388;29;20618;-90
2022/04/19 04:17:21;;;;;;;3.63;1.47;;;;;;;7.12;76.99;98702.44;4938477;29;20196;-89
2022/04/19 04:19:46;;;;;;;1.87;0.87;;;;;;;7.15;77.36;98704.91;4938340;29;20670;-89
2022/04/19 04:22:12;;;;;;;2.07;0.73;;;;;;;7.26;76.42;98710.47;4938700;29;20181;-89
2022/04/19 04:24:37;;;;;;;0.97;0.63;;;;;;;7.26;76.81;98702.66;4955009;28;20185;-89
2022/04/19 04:27:03;;;;;;;2.37;1.10;;;;;;;7.27;76.70;98707.81;4955228;29;20231;-89
2022/04/19 04:29:28;;;;;;;1.97;1.37;;;;;;;7.33;76.23;98709.28;4955424;29;20212;-89
2022/04/19 04:31:54;;;;;;;2.70;1.70;;;;;;;7.28;76.98;98698.22;4938293;29;20663;-89
2022/04/19 04:34:19;;;;;;;1.50;1.03;;;;;;;7.29;76.32;98702.50;4955393;29;20181;-90
2022/04/19 04:36:45;;;;;;;1.70;0.97;;;;;;;7.28;76.48;98706.06;4955444;29;20517;-89
2022/04/19 04:39:11;;;;;;;1.97;1.00;;;;;;;7.29;76.11;98705.97;4955587;29;20197;-89
2022/04/19 04:41:36;;;;;;;3.77;1.37;;;;;;;7.25;76.85;98700.97;4955306;29;20538;-89
2022/04/19 04:44:02;;;;;;;2.20;1.10;;;;;;;7.17;76.45;98703.09;4954945;28;20207;-90
2022/04/19 04:51:55;;;;;;;3.53;1.70;;;;;;;6.90;76.74;98712.13;4955520;29;20176;-89
2022/04/19 04:54:20;;;;;;;2.90;1.27;;;;;;;7.04;77.01;98717.59;4938044;29;20540;-89
2022/04/19 04:56:46;;;;;;;2.33;1.50;;;;;;;7.25;77.06;98717.47;4955140;29;20280;-90
2022/04/19 04:59:11;;;;;;;1.30;0.80;;;;;;;7.24;76.92;98720.97;4955434;29;20181;-90
2022/04/19 05:01:37;;;;;;;3.20;1.63;;;;;;;7.13;76.88;98722.38;4954931;29;20181;-91
2022/04/19 05:04:02;;;;;;;3.70;1.00;;;;;;;7.20;76.50;98726.41;4937926;29;20181;-91
2022/04/19 05:06:28;;;;;;;1.30;0.83;;;;;;;7.13;76.42;98732.78;4938181;29;20185;-90
2022/04/19 05:08:54;;;;;;;0.97;0.70;;;;;;;7.15;76.31;98742.25;4937951;29;20604;-91
2022/04/19 05:11:19;;;;;;;1.77;1.17;;;;;;;7.24;76.16;98743.59;4955013;29;20205;-90
2022/04/19 05:13:45;;;;;;;1.33;0.80;;;;;;;7.22;76.40;98742.81;4954845;29;20541;-90
2022/04/19 05:16:10;;;;;;;1.93;1.17;;;;;;;7.29;76.80;98739.00;4938043;29;20702;-90
2022/04/19 05:18:36;;;;;;;3.63;0.93;;;;;;;7.39;76.60;98743.72;4954993;29;20187;-90
2022/04/19 05:21:02;;;;;;;4.03;1.17;;;;;;;7.42;76.55;98737.53;4954747;29;20212;-90
2022/04/19 05:23:27;;;;;;;3.20;1.20;;;;;;;7.56;75.95;98742.97;4954939;29;20173;-90
2022/04/19 05:25:53;;;;;;;5.90;3.00;;;;;;;7.54;75.54;98743.94;4955199;29;20181;-90
2022/04/19 05:28:18;;;;;;;4.60;1.27;;;;;;;7.56;75.18;98742.09;4937999;29;20276;-91
2022/04/19 05:30:44;;;;;;;1.27;0.60;;;;;;;7.53;74.73;98750.91;4937822;29;20220;-90
2022/04/19 05:33:11;;;;;;;2.87;1.27;;;;;;;7.35;75.39;98749.16;4954616;29;20184;-90
2022/04/19 05:35:36;;;;;;;1.67;0.80;;;;;;;7.37;75.25;98756.00;4954879;29;20219;-90
2022/04/19 05:38:02;;;;;;;2.67;0.93;;;;;;;7.53;75.13;98753.53;4957410;28;20209;-90
2022/04/19 05:40:28;;;;;;;2.53;0.70;;;;;;;7.59;75.07;98757.63;4958267;29;20234;-90
2022/04/19 05:42:54;;;;;;;2.50;1.40;;;;;;;7.38;74.89;98767.28;4958017;28;20200;-90
2022/04/19 05:45:20;;;;;;;1.50;1.03;;;;;;;7.48;74.78;98760.72;4958086;29;20184;-89
2022/04/19 05:47:45;;;;;;;1.20;0.70;;;;;;;7.54;73.90;98755.22;4941220;29;20177;-91
2022/04/19 05:50:11;;;;;;;1.47;0.97;;;;;;;7.62;74.30;98760.94;4941078;29;20213;-90
2022/04/19 05:52:37;;;;;;;2.80;1.60;;;;;;;7.67;73.92;98758.09;4941107;29;20559;-90
2022/04/19 05:55:04;;;;;;;4.30;1.83;;;;;;;7.82;73.79;98763.44;4941026;29;20621;-89
2022/04/19 05:57:30;;;;;;;7.60;2.37;;;;;;;7.91;73.69;98763.00;4940988;29;20189;-90
2022/04/19 05:59:55;;;;;;;2.37;1.30;;;;;;;8.01;73.51;98764.28;4940950;29;20173;-90
2022/04/19 06:05:05;;;;;;;1.87;1.30;;;;;;;8.02;72.36;98765.94;4958413;29;20589;-89
2022/04/19 06:07:31;;;;;;;1.67;0.83;;;;;;;8.10;72.92;98767.34;4941021;29;20621;-90
2022/04/19 06:09:57;;;;;;;5.40;1.40;;;;;;;8.19;72.96;98779.94;4957608;29;20276;-90
2022/04/19 06:12:23;;;;;;;1.20;0.90;;;;;;;8.17;72.85;98782.66;4940721;29;20656;-89
2022/04/19 06:14:49;;;;;;;2.03;1.00;;;;;;;8.22;72.61;98779.81;4940754;29;20216;-89
2022/04/19 06:17:16;;;;;;;2.53;0.90;;;;;;;8.13;72.74;98778.47;4957869;29;20632;-89
2022/04/19 06:19:43;;;;;;;2.40;0.97;;;;;;;8.11;72.38;98777.72;4940619;29;20180;-90
2022/04/19 06:22:08;;;;;;;4.67;1.60;;;;;;;8.21;73.04;98784.16;4957493;29;20177;-90
2022/04/19 06:24:35;;;;;;;2.03;0.60;;;;;;;8.30;72.69;98777.69;4940792;29;20269;-90
2022/04/19 06:27:00;;;;;;;2.03;0.73;;;;;;;8.38;73.39;98776.41;4940386;29;20254;-90
2022/04/19 06:29:26;;;;;;;1.07;0.70;;;;;;;8.48;73.25;98782.88;4957277;29;20237;-90
2022/04/19 06:31:51;;;;;;;1.90;0.90;;;;;;;8.51;72.47;98792.31;4940390;29;20541;-90
2022/04/19 06:34:17;;;;;;;1.33;1.00;;;;;;;8.33;71.78;98788.00;4957262;29;20546;-91
2022/04/19 06:36:46;;;;;;;0.70;0.50;;;;;;;8.07;71.43;98783.97;4957280;29;20629;-91
2022/04/19 06:39:12;;;;;;;1.07;0.60;;;;;;;7.90;72.74;98790.03;4940286;29;20185;-91
2022/04/19 06:41:37;;;;;;;1.33;0.80;;;;;;;7.82;73.27;98792.16;4957662;29;20263;-90
2022/04/19 06:44:05;;;;;;;1.60;0.83;;;;;;;7.92;73.67;98796.00;4957047;28;20268;-90
2022/04/19 06:46:30;;;;;;;0.70;0.60;;;;;;;8.17;73.98;98793.09;4957079;29;20193;-91
2022/04/19 06:48:58;;;;;;;1.90;0.97;;;;;;;7.98;72.93;98793.13;4940016;29;20255;-90
2022/04/19 06:51:25;;;;;;;2.57;1.43;;;;;;;8.16;73.13;98794.00;4956878;29;20203;-90
2022/04/19 06:53:51;;;;;;;1.83;1.10;;;;;;;8.23;72.84;98790.16;4956952;29;20707;-90
2022/04/19 06:56:17;;;;;;;3.90;1.63;;;;;;;8.24;71.95;98793.63;4940231;29;20550;-92
2022/04/19 06:58:44;;;;;;;3.00;1.13;;;;;;;8.07;71.59;98796.22;4940252;29;20189;-90
2022/04/19 07:01:10;;;;;;;3.17;1.40;;;;;;;8.16;72.04;98793.16;4956798;29;20177;-90
2022/04/19 07:03:36;;;;;;;4.10;1.03;;;;;;;8.38;72.44;98792.06;4956805;29;20181;-91
2022/04/19 07:06:03;;;;;;;2.47;1.47;;;;;;;8.46;71.34;98795.13;4956665;29;20272;-90
2022/04/19 07:08:28;;;;;;;5.03;1.23;;;;;;;8.46;71.75;98804.75;4956712;29;20184;-91
2022/04/19 07:10:55;;;;;;;3.60;1.80;;;;;;;8.67;73.38;98793.25;4939976;29;20205;-90
2022/04/19 07:13:20;;;;;;;2.30;1.27;;;;;;;8.63;72.30;98807.38;4956581;29;20194;-91
2022/04/19 07:15:46;;;;;;;3.37;1.67;;;;;;;8.69;71.31;98807.06;4956557;29;20175;-91
2022/04/19 07:18:13;;;;;;;1.80;1.10;;;;;;;8.82;70.54;98812.50;4956534;29;20260;-91
2022/04/19 07:28:50;;;;;;;3.13;1.87;;;;;;;9.15;70.86;98795.94;4956638;29;20606;-90
2022/04/19 07:31:15;;;;;;;2.70;1.20;;;;;;;9.11;71.17;98797.03;4956149;29;20206;-90
2022/04/19 07:33:41;;;;;;;2.50;1.60;;;;;;;9.11;70.89;98809.25;4956458;29;20641;-90
2022/04/19 07:36:07;;;;;;;2.90;1.60;;;;;;;9.07;70.04;98800.72;4956173;29;20185;-90
2022/04/19 07:38:33;;;;;;;1.93;1.40;;;;;;;9.27;69.28;98805.78;4956175;29;20184;-90
2022/04/19 07:40:59;;;;;;;3.43;1.40;;;;;;;9.40;69.38;98798.13;4956056;29;20203;-90
2022/04/19 07:43:24;;;;;;;7.27;1.83;;;;;;;9.49;69.93;98805.47;4955973;28;20200;-90
2022/04/19 07:45:50;;;;;;;3.60;1.57;;;;;;;9.51;68.49;98803.59;4955967;29;20195;-90
2022/04/19 07:48:16;;;;;;;2.37;1.50;;;;;;;9.62;68.56;98805.63;4955978;29;20173;-90
2022/04/19 07:50:42;;;;;;;3.80;1.67;;;;;;;9.75;68.35;98796.19;4955820;29;20685;-91
2022/04/19 07:53:09;;;;;;;2.73;1.33;;;;;;;9.88;67.73;98802.44;4955883;29;20330;-90
2022/04/19 07:55:35;;;;;;;3.23;1.53;;;;;;;9.93;67.18;98800.47;4956346;29;20533;-91
2022/04/19 07:58:01;;;;;;;3.43;1.63;;;;;;;9.97;67.64;98798.50;4955716;29;20273;-90
2022/04/19 08:00:27;;;;;;;3.70;1.43;;;;;;;9.93;67.95;98794.38;4938326;29;20209;-91
2022/04/19 08:02:57;;;;;;;3.73;1.83;;;;;;;9.96;64.89;98799.44;4938819;29;20184;-91
2022/04/19 08:05:26;;;;;;;2.17;1.27;;;;;;;10.05;64.67;98810.25;4955890;29;20190;-91
2022/04/19 08:07:52;;;;;;;3.30;1.63;;;;;;;9.92;64.60;98804.00;4955842;29;20538;-91
2022/04/19 08:10:18;;;;;;;3.60;1.90;;;;;;;9.96;64.77;98805.50;4955463;29;20212;-90
2022/04/19 08:12:44;;;;;;;2.93;1.60;;;;;;;10.08;64.98;98804.84;4955456;29;20663;-91
2022/04/19 08:15:10;;;;;;;3.33;1.67;;;;;;;10.18;64.55;98811.28;4955440;29;20180;-91
2022/04/19 08:17:37;;;;;;;2.13;1.13;;;;;;;10.21;65.01;98810.25;4955438;29;20252;-92
2022/04/19 08:20:03;;;;;;;2.70;1.50;;;;;;;10.10;64.01;98804.72;4938591;29;20195;-90
2022/04/19 08:22:29;;;;;;;2.60;1.40;;;;;;;10.17;64.17;98806.09;4955636;29;20184;-91
2022/04/19 08:24:54;;;;;;;3.43;1.87;;;;;;;10.26;63.85;98806.44;4938398;29;20702;-91
2022/04/19 08:27:20;;;;;;;3.90;1.73;;;;;;;10.33;64.88;98805.16;4955878;29;20217;-91
2022/04/19 08:29:47;;;;;;;4.77;2.23;;;;;;;10.40;64.49;98803.88;4955187;29;20663;-91
2022/04/19 08:32:13;;;;;;;2.93;1.47;;;;;;;10.22;62.08;98811.97;4938963;29;20181;-91
2022/04/19 08:34:39;;;;;;;4.37;2.67;;;;;;;10.30;63.10;98805.34;4955511;29;20201;-90
2022/04/19 08:37:05;;;;;;;3.93;2.17;;;;;;;10.53;63.48;98800.56;4938253;29;20192;-90
2022/04/19 08:39:31;;;;;;;3.13;1.20;;;;;;;10.71;63.21;98802.13;4955077;29;20271;-91
2022/04/19 08:41:57;;;;;;;3.03;1.80;;;;;;;10.75;62.64;98801.84;4955043;28;20303;-91
2022/04/19 08:44:22;;;;;;;3.37;1.63;;;;;;;10.82;62.17;98803.16;4938169;29;20562;-91
2022/04/19 08:46:48;;;;;;;3.17;2.03;;;;;;;10.74;62.18;98808.03;4955049;29;20223;-91
2022/04/19 08:49:16;;;;;;;5.10;1.97;;;;;;;10.70;61.37;98795.19;4955018;29;20181;-91
2022/04/19 08:51:44;;;;;;;4.10;2.33;;;;;;;10.84;62.61;98797.84;4938243;29;20233;-91
2022/04/19 08:59:40;;;;;;;2.60;1.53;;;;;;;11.13;60.43;98802.22;4955822;29;20224;-91
2022/04/19 09:02:06;;;;;;;3.20;1.63;;;;;;;11.31;60.24;98792.38;4955218;29;20193;-91
2022/04/19 09:04:31;;;;;;;1.77;1.13;;;;;;;11.35;60.01;98786.00;4937944;29;20188;-91
2022/04/19 09:06:59;;;;;;;2.33;1.17;;;;;;;11.27;61.29;98793.50;4938056;29;20696;-92
2022/04/19 09:09:34;;;;;;;6.40;2.50;;;;;;;11.35;61.21;98794.72;4954721;29;20243;-91
2022/04/19 09:12:09;;;;;;;2.40;1.77;;;;;;;11.56;59.07;98788.13;4956190;28;20247;-92
2022/04/19 09:14:35;;;;;;;4.57;2.03;;;;;;;11.54;58.59;98792.66;4959042;29;20543;-92
2022/04/19 09:17:06;;;;;;;3.00;1.60;;;;;;;11.64;58.46;98785.88;4958996;29;20180;-92
2022/04/19 09:19:32;;;;;;;3.50;2.23;;;;;;;11.69;58.91;98791.72;4958972;29;20180;-92
2022/04/19 09:21:58;;;;;;;2.50;1.53;;;;;;;11.37;58.21;98794.63;4959138;29;20177;-91
2022/04/19 09:24:25;;;;;;;4.63;2.80;;;;;;;11.50;57.47;98801.63;4958537;29;20256;-92
2022/04/19 09:26:51;;;;;;;3.30;1.43;;;;;;;11.63;57.49;98799.94;4958586;29;20181;-92
2022/04/19 09:29:25;;;;;;;4.30;2.00;;;;;;;11.40;57.51;98808.38;4958494;29;20511;-92
2022/04/19 09:32:01;;;;;;;2.87;1.60;;;;;;;11.31;56.79;98806.34;4958708;29;20272;-91
2022/04/19 09:34:30;;;;;;;3.10;1.80;;;;;;;11.39;57.48;98809.34;4941464;29;20204;-91
2022/04/19 09:37:10;;;;;;;3.90;2.10;;;;;;;11.44;57.30;98807.28;4941339;29;20237;-92
2022/04/19 09:39:41;;;;;;;2.20;1.33;;;;;;;11.47;56.61;98801.84;4958329;29;20652;-93
2022/04/19 09:42:09;;;;;;;3.30;1.43;;;;;;;11.44;54.99;98807.28;4958061;28;20776;-92
2022/04/19 09:44:39;;;;;;;4.40;2.07;;;;;;;11.45;55.76;98806.31;4958221;29;20173;-92
2022/04/19 09:47:12;;;;;;;5.80;2.43;;;;;;;11.41;56.21;98815.34;4941122;29;20189;-92
2022/04/19 09:49:46;;;;;;;2.17;1.50;;;;;;;11.41;55.80;98809.25;4958335;29;20207;-92
2022/04/19 09:52:21;;;;;;;4.70;1.47;;;;;;;11.51;56.40;98811.22;4958007;29;20564;-92
2022/04/19 09:55:03;;;;;;;7.97;2.87;;;;;;;11.45;57.50;98808.94;4958103;29;20196;-91
2022/04/19 09:57:30;;;;;;;4.20;2.27;;;;;;;11.47;56.48;98808.88;4958091;29;20626;-93
2022/04/19 09:59:58;;;;;;;4.90;2.67;;;;;;;11.58;56.50;98809.88;4940967;29;20191;-92
2022/04/19 10:10:38;;;;;;;6.00;2.83;;;;;;;11.49;58.05;98815.72;4958289;29;20205;-93
2022/04/19 10:13:05;;;;;;;5.00;1.90;;;;;;;11.63;58.22;98813.06;4940849;29;20185;-93
2022/04/19 10:15:35;;;;;;;6.30;2.97;;;;;;;11.67;55.74;98809.31;4957786;29;20248;-93
2022/04/19 10:18:04;;;;;;;3.80;2.00;;;;;;;11.63;55.78;98810.44;4957774;29;20606;-92
2022/04/19 10:20:32;;;;;;;3.60;1.77;;;;;;;11.54;55.49;98803.16;4940767;29;20189;-92
2022/04/19 10:23:08;;;;;;;4.77;2.70;;;;;;;11.53;55.86;98806.69;4957215;28;20204;-93
2022/04/19 10:25:48;;;;;;;4.13;2.50;;;;;;;11.51;56.37;98811.22;4957994;29;20202;-92
2022/04/19 10:28:16;;;;;;;4.83;2.53;;;;;;;11.50;55.79;98809.50;4940819;29;20248;-92
2022/04/19 10:30:51;;;;;;;4.67;2.50;;;;;;;11.48;55.24;98808.75;4940544;29;20240;-93
2022/04/19 10:33:39;;;;;;;6.80;2.97;;;;;;;11.75;55.30;98802.78;4958014;29;20184;-92
2022/04/19 10:36:14;;;;;;;4.13;2.10;;;;;;;11.84;55.66;98800.44;4957773;29;20188;-94
2022/04/19 10:38:41;;;;;;;4.27;2.27;;;;;;;11.99;55.21;98806.50;4940657;29;20263;-94
2022/04/19 10:41:07;;;;;;;5.73;2.17;;;;;;;12.15;54.86;98799.31;4940836;29;20187;-93
2022/04/19 10:43:32;;;;;;;6.63;1.93;;;;;;;12.25;52.46;98797.78;4940420;29;20550;-94
2022/04/19 10:46:17;;;;;;;4.13;2.30;;;;;;;12.41;52.03;98805.50;4957358;29;20273;-94
2022/04/19 10:49:20;;;;;;;4.90;2.00;;;;;;;12.51;51.56;98796.09;4957654;29;20191;-93
2022/04/19 10:51:46;;;;;;;3.57;2.03;;;;;;;12.55;49.06;98795.78;4957416;29;20218;-93
2022/04/19 10:54:13;;;;;;;3.73;2.13;;;;;;;12.55;50.97;98803.66;4940549;29;20602;-94
2022/04/19 11:00:19;;;;;;;2.30;1.37;;;;;;;12.58;48.34;98810.53;4957738;29;20647;-94
2022/04/19 11:02:56;;;;;;;3.53;2.00;;;;;;;12.70;50.06;98813.19;4957475;29;20158;-94
2022/04/19 11:05:41;;;;;;;7.27;2.67;;;;;;;12.78;50.96;98810.91;4957339;29;20173;-94
2022/04/19 11:08:36;;;;;;;2.50;1.57;;;;;;;12.87;50.78;98797.09;4940276;29;20191;-94
2022/04/19 11:11:02;;;;;;;3.77;2.00;;;;;;;12.71;49.50;98804.34;4934880;29;20228;-94
2022/04/19 11:13:39;;;;;;;4.13;2.17;;;;;;;12.82;52.14;98795.72;4940209;29;20267;-95
2022/04/19 11:16:07;;;;;;;4.90;2.33;;;;;;;13.08;51.46;98788.72;4940238;29;20571;-94
2022/04/19 11:18:39;;;;;;;4.67;2.20;;;;;;;13.17;51.22;98796.00;4940063;29;20183;-94
2022/04/19 11:21:15;;;;;;;3.67;2.13;;;;;;;13.37;51.51;98790.22;4956780;29;20173;-94
2022/04/19 11:23:47;;;;;;;2.97;1.77;;;;;;;13.38;48.87;98794.53;4957032;29;20161;-95
2022/04/19 11:26:28;;;;;;;4.30;1.70;;;;;;;13.46;49.46;98797.47;4939916;29;20275;-94
2022/04/19 11:29:09;;;;;;;2.40;1.50;;;;;;;13.47;48.41;98791.25;4939896;29;20222;-94
2022/04/19 11:31:43;;;;;;;3.20;1.47;;;;;;;13.44;46.73;98791.50;4940057;29;20211;-95
2022/04/19 11:34:14;;;;;;;2.53;1.30;;;;;;;13.33;46.75;98789.59;4939386;29;20286;-95
2022/04/19 11:36:40;;;;;;;4.17;1.70;;;;;;;13.29;46.93;98785.47;4956735;29;20640;-95
2022/04/19 11:39:06;;;;;;;3.90;2.17;;;;;;;13.29;48.40;98782.84;4956417;29;20264;-95
2022/04/19 11:47:02;;;;;;;3.80;2.00;;;;;;;13.43;49.79;98787.16;4938106;29;20199;-95
2022/04/19 11:49:36;;;;;;;4.00;1.47;;;;;;;13.33;47.24;98781.72;4937245;29;20664;-93
2022/04/19 11:52:06;;;;;;;3.17;1.23;;;;;;;13.29;49.09;98785.47;4920618;29;20190;-96
2022/04/19 11:54:32;;;;;;;3.80;1.40;;;;;;;13.32;47.66;98784.44;4920429;29;20204;-95
2022/04/19 11:57:00;;;;;;;3.53;1.57;;;;;;;13.53;48.16;98782.94;4920470;29;20266;-95
2022/04/19 11:59:35;;;;;;;1.50;0.83;;;;;;;13.60;47.05;98780.72;4937115;29;20660;-94
2022/04/19 12:02:04;;;;;;;3.03;1.40;;;;;;;13.67;47.42;98774.91;4920385;29;20202;-94
2022/04/19 12:04:29;;;;;;;1.37;0.87;;;;;;;13.78;46.11;98779.44;4920255;29;20204;-94
2022/04/19 12:07:01;;;;;;;2.50;1.30;;;;;;;13.67;45.15;98774.91;4936881;29;20170;-95
2022/04/19 12:09:28;;;;;;;1.53;0.83;;;;;;;13.73;43.85;98781.53;4937236;29;20225;-94
2022/04/19 12:11:55;;;;;;;2.67;1.30;;;;;;;13.62;44.69;98777.03;4920050;29;20215;-94
2022/04/19 12:14:25;;;;;;;2.70;1.30;;;;;;;13.64;46.25;98774.28;4920610;29;20194;-94
2022/04/19 12:17:01;;;;;;;2.30;1.10;;;;;;;13.69;44.58;98770.38;4920106;29;20287;-94
2022/04/19 12:19:41;;;;;;;2.77;1.40;;;;;;;13.71;46.11;98768.47;4920592;29;20677;-94
2022/04/19 12:22:18;;;;;;;1.97;1.07;;;;;;;14.23;44.76;98767.38;4920839;29;20689;-94
2022/04/19 12:24:50;;;;;;;4.33;1.33;;;;;;;14.34;45.34;98764.78;4920072;29;20240;-94